Time;durP1;ratioP1;P1;durP2;ratioP2;P2;SDS_P1;SDS_P2;PMS_P1;PMS_P2;Temp;Humidity;BMP_temperature;BMP_pressure;BME280_temperature;BME280_humidity;BME280_pressure;Samples;Min_cycle;Max_cycle;Signal;HPM_P1;HPM_P2
2022/10/19 00:02:44;;;;;;;8.45;6.50;;;;;;;4.59;72.68;96099.50;6297731;28;20154;-69
2022/10/19 00:05:45;;;;;;;9.52;6.68;;;;;;;4.52;72.54;96086.88;6297493;28;20052;-69
2022/10/19 00:08:46;;;;;;;9.77;6.82;;;;;;;4.50;73.04;96090.44;6296026;28;20066;-69
2022/10/19 00:11:49;;;;;;;8.13;6.55;;;;;;;4.57;72.78;96088.31;6297663;28;20036;-69
2022/10/19 00:14:51;;;;;;;10.50;7.00;;;;;;;4.64;72.62;96081.00;6297270;28;20694;-68
2022/10/19 00:17:52;;;;;;;8.73;6.03;;;;;;;4.59;72.78;96077.84;6296921;28;20106;-69
2022/10/19 00:21:04;;;;;;;10.77;7.13;;;;;;;4.45;73.43;96070.75;6297419;28;20086;-69
2022/10/19 00:24:06;;;;;;;10.55;7.57;;;;;;;4.44;73.57;96056.88;6296797;28;20425;-69
2022/10/19 00:27:13;;;;;;;9.90;7.15;;;;;;;4.36;74.14;96077.28;6297229;28;20052;-68
2022/10/19 00:30:14;;;;;;;8.63;6.25;;;;;;;4.48;74.27;96061.00;6296786;28;20429;-68
2022/10/19 00:33:20;;;;;;;13.35;7.93;;;;;;;4.37;74.76;96047.72;6296622;28;20072;-69
2022/10/19 00:36:27;;;;;;;13.38;8.18;;;;;;;4.25;75.13;96053.59;6297290;28;20036;-69
2022/10/19 00:39:35;;;;;;;12.45;8.35;;;;;;;4.28;75.50;96032.59;6297401;28;20044;-69
2022/10/19 00:42:44;;;;;;;12.07;8.20;;;;;;;4.10;76.21;96036.97;6296871;28;20048;-68
2022/10/19 00:45:46;;;;;;;14.40;8.40;;;;;;;4.14;76.33;96027.28;6296639;28;20444;-69
2022/10/19 00:48:49;;;;;;;14.13;9.65;;;;;;;4.01;76.94;96025.28;6297033;28;20183;-69
2022/10/19 00:51:54;;;;;;;13.80;9.15;;;;;;;4.03;77.25;96023.44;6296729;28;20051;-69
2022/10/19 00:54:58;;;;;;;12.65;7.97;;;;;;;4.08;77.48;96019.75;6296338;28;20044;-68
2022/10/19 00:58:01;;;;;;;11.57;8.60;;;;;;;4.09;77.47;96013.66;6296556;28;20047;-69
2022/10/19 01:01:06;;;;;;;12.35;8.95;;;;;;;4.19;77.17;96000.06;6296395;28;20041;-68
2022/10/19 01:04:08;;;;;;;12.90;8.88;;;;;;;4.15;77.23;95989.88;6296192;28;20056;-68
2022/10/19 01:07:13;;;;;;;15.80;9.20;;;;;;;4.13;77.49;95968.28;6296160;28;20045;-67
2022/10/19 01:10:19;;;;;;;13.38;8.25;;;;;;;4.13;77.34;95971.72;6296064;28;20048;-68
2022/10/19 01:13:45;;;;;;;13.77;8.00;;;;;;;4.13;78.03;95970.91;6296166;28;20510;-68
2022/10/19 01:17:10;;;;;;;17.73;9.68;;;;;;;4.09;77.80;95974.59;6296180;28;20040;-69
2022/10/19 01:20:48;;;;;;;13.98;10.27;;;;;;;4.04;78.28;95952.25;6296147;28;20048;-70
2022/10/19 01:24:22;;;;;;;11.45;5.97;;;;;;;4.00;78.29;95944.69;6296021;28;20062;-68
2022/10/19 01:27:52;;;;;;;13.35;8.45;;;;;;;3.93;78.85;95933.75;6294735;28;20048;-69
2022/10/19 01:31:00;;;;;;;15.20;9.45;;;;;;;3.92;79.13;95934.69;6295878;28;20143;-69
2022/10/19 01:34:16;;;;;;;16.17;10.30;;;;;;;4.01;78.82;95952.41;6296048;28;20457;-69
2022/10/19 01:37:35;;;;;;;15.13;9.38;;;;;;;3.91;79.01;95940.81;6295133;28;20040;-68
2022/10/19 01:40:57;;;;;;;9.35;6.07;;;;;;;3.91;79.57;95955.59;6295617;28;20037;-69
2022/10/19 01:44:23;;;;;;;14.25;8.90;;;;;;;3.97;79.23;95942.25;6295328;28;20053;-69
2022/10/19 01:47:53;;;;;;;12.93;7.22;;;;;;;4.01;79.63;95930.75;6295467;28;20121;-69
2022/10/19 01:51:02;;;;;;;12.95;8.30;;;;;;;3.99;79.49;95914.38;6286252;28;20052;-69
2022/10/19 01:54:08;;;;;;;12.90;7.55;;;;;;;3.97;79.12;95914.47;6295759;28;20232;-69
2022/10/19 01:57:19;;;;;;;13.43;9.48;;;;;;;4.13;79.12;95908.41;6295539;28;20066;-68
2022/10/19 02:00:22;;;;;;;11.45;8.43;;;;;;;4.08;78.92;95897.41;6295383;28;20042;-68
2022/10/19 02:03:24;;;;;;;10.48;6.47;;;;;;;4.08;78.81;95889.59;6295270;28;20127;-69
2022/10/19 02:06:26;;;;;;;8.98;5.90;;;;;;;4.23;78.02;95883.56;6295167;28;20037;-69
2022/10/19 02:09:28;;;;;;;9.77;7.05;;;;;;;4.06;78.35;95881.88;6295050;28;20048;-68
2022/10/19 02:12:32;;;;;;;10.07;7.13;;;;;;;4.00;78.81;95883.06;6295056;28;20041;-69
2022/10/19 02:15:35;;;;;;;;;;;;;;;4.19;77.63;95876.81;6295786;28;20409;-68
2022/10/19 02:18:43;;;;;;;10.10;6.95;;;;;;;4.08;78.02;95863.56;6295091;28;19993;-68
2022/10/19 02:21:45;;;;;;;10.70;7.47;;;;;;;3.96;78.76;95865.06;6295091;28;20049;-69
2022/10/19 02:24:49;;;;;;;8.07;6.28;;;;;;;3.89;78.98;95851.56;6294517;28;20059;-70
2022/10/19 02:27:50;;;;;;;12.48;6.47;;;;;;;3.93;78.91;95858.28;6295217;28;20047;-69
2022/10/19 02:30:53;;;;;;;10.93;7.70;;;;;;;3.97;78.83;95852.00;6295369;28;20045;-69
2022/10/19 02:33:57;;;;;;;10.70;8.18;;;;;;;3.99;78.49;95839.75;6295097;28;20060;-69
2022/10/19 02:36:58;;;;;;;9.80;6.97;;;;;;;3.96;79.07;95839.91;6294939;28;20040;-69
2022/10/19 02:40:00;;;;;;;10.18;6.28;;;;;;;3.82;79.19;95840.66;6294707;28;20044;-69
2022/10/19 02:43:09;;;;;;;9.45;6.43;;;;;;;3.91;79.15;95834.13;6294772;28;20056;-69
2022/10/19 02:46:25;;;;;;;6.68;4.93;;;;;;;3.84;79.81;95824.97;6294923;28;20424;-69
2022/10/19 02:49:28;;;;;;;9.45;6.78;;;;;;;3.83;79.50;95818.09;6299106;28;20094;-69
2022/10/19 02:52:29;;;;;;;8.52;6.10;;;;;;;3.79;80.26;95827.84;6298388;28;20067;-68
2022/10/19 02:55:31;;;;;;;8.80;6.40;;;;;;;3.81;79.92;95818.16;6299388;28;20055;-70
2022/10/19 02:58:34;;;;;;;9.20;5.88;;;;;;;3.88;80.08;95816.06;6299270;28;20044;-69
2022/10/19 03:01:36;;;;;;;7.20;4.85;;;;;;;3.88;79.90;95808.28;6298638;28;20041;-69
2022/10/19 03:04:40;;;;;;;5.43;3.38;;;;;;;3.92;80.07;95807.16;6298768;28;20167;-70
2022/10/19 03:07:44;;;;;;;8.45;5.07;;;;;;;4.00;79.71;95794.56;6299105;28;20037;-69
2022/10/19 03:10:48;;;;;;;5.53;4.88;;;;;;;4.01;79.31;95796.22;6298922;28;20051;-70
2022/10/19 03:13:55;;;;;;;3.78;3.20;;;;;;;4.05;79.02;95778.69;6298791;28;20052;-70
2022/10/19 03:16:59;;;;;;;5.65;3.78;;;;;;;3.96;79.32;95780.06;6298940;28;20046;-69
2022/10/19 03:20:00;;;;;;;5.03;4.40;;;;;;;3.93;79.37;95779.38;6297354;28;20040;-71
2022/10/19 03:23:04;;;;;;;6.22;4.28;;;;;;;3.89;79.42;95778.72;6298795;28;20359;-70
2022/10/19 03:26:11;;;;;;;3.78;3.28;;;;;;;3.96;79.02;95780.06;6298608;28;20050;-70
2022/10/19 03:29:12;;;;;;;4.65;4.05;;;;;;;3.76;79.54;95775.94;6298768;28;20050;-69
2022/10/19 03:32:14;;;;;;;4.57;3.13;;;;;;;3.98;79.18;95777.34;6297369;28;20159;-71
2022/10/19 03:35:18;;;;;;;5.07;4.00;;;;;;;3.85;79.91;95772.00;6298327;28;20043;-70
2022/10/19 03:38:19;;;;;;;5.60;4.10;;;;;;;3.82;79.89;95759.13;6298205;28;20056;-69
2022/10/19 03:41:26;;;;;;;3.67;2.60;;;;;;;3.82;80.29;95770.41;6298525;28;20056;-71
2022/10/19 03:44:33;;;;;;;4.22;3.15;;;;;;;3.79;80.70;95764.53;6298313;28;20044;-71
2022/10/19 03:47:35;;;;;;;4.85;2.60;;;;;;;3.71;80.44;95761.50;6298191;28;20105;-70
2022/10/19 03:50:41;;;;;;;4.20;3.30;;;;;;;3.56;80.82;95758.81;6298310;28;20036;-71
2022/10/19 03:53:46;;;;;;;4.82;3.15;;;;;;;3.46;81.46;95747.25;6297841;28;20058;-70
2022/10/19 03:56:49;;;;;;;3.83;3.28;;;;;;;3.47;81.71;95728.13;6297948;28;20052;-69
2022/10/19 03:59:51;;;;;;;6.32;3.90;;;;;;;3.42;82.17;95724.94;6296222;28;20047;-69
2022/10/19 04:02:53;;;;;;;3.35;3.05;;;;;;;3.44;82.90;95727.47;6297600;28;20494;-71
2022/10/19 04:06:02;;;;;;;4.80;4.30;;;;;;;3.41;82.76;95705.06;6297457;28;20139;-69
2022/10/19 04:09:07;;;;;;;4.05;3.38;;;;;;;3.41;83.40;95697.25;6297697;28;20044;-71
2022/10/19 04:12:11;;;;;;;3.75;3.33;;;;;;;3.35;83.72;95687.22;6297614;28;20159;-71
2022/10/19 04:15:13;;;;;;;5.35;4.15;;;;;;;3.39;84.22;95688.69;6297116;28;20056;-71
2022/10/19 04:18:14;;;;;;;6.68;4.93;;;;;;;3.52;84.11;95676.69;6297458;28;20514;-70
2022/10/19 04:21:21;;;;;;;6.07;4.22;;;;;;;3.59;84.15;95680.66;6297361;28;20078;-70
2022/10/19 04:24:27;;;;;;;6.88;4.70;;;;;;;3.59;84.17;95679.78;6297390;28;20541;-70
2022/10/19 04:27:31;;;;;;;6.15;4.80;;;;;;;3.66;84.62;95656.88;6297367;28;20055;-70
2022/10/19 04:30:32;;;;;;;6.35;5.22;;;;;;;3.76;84.85;95658.03;6297285;28;20048;-70
2022/10/19 04:33:37;;;;;;;7.45;4.97;;;;;;;3.85;84.84;95654.03;6296866;28;20051;-70
2022/10/19 04:36:38;;;;;;;7.10;6.20;;;;;;;3.83;84.93;95641.97;6296961;28;20047;-70
2022/10/19 04:39:42;;;;;;;6.22;5.20;;;;;;;3.88;84.68;95644.31;6297132;28;20048;-69
2022/10/19 04:42:46;;;;;;;8.27;6.38;;;;;;;3.86;84.54;95647.94;6296932;28;20080;-70
2022/10/19 04:45:53;;;;;;;9.68;6.60;;;;;;;3.92;84.70;95635.41;6297133;28;20098;-70
2022/10/19 04:48:55;;;;;;;7.28;5.85;;;;;;;3.94;84.66;95633.56;6296714;28;20040;-70
2022/10/19 04:51:59;;;;;;;8.02;5.93;;;;;;;4.05;84.21;95631.16;6296609;28;20036;-70
2022/10/19 04:55:03;;;;;;;5.82;4.97;;;;;;;4.01;84.51;95629.66;6296638;28;20074;-70
2022/10/19 04:58:06;;;;;;;8.00;5.68;;;;;;;4.07;84.76;95630.22;6295809;28;20040;-70
2022/10/19 05:01:13;;;;;;;8.95;6.30;;;;;;;4.18;84.76;95620.00;6296420;28;20036;-70
2022/10/19 05:04:15;;;;;;;6.07;4.63;;;;;;;4.14;84.74;95619.38;6296100;28;20094;-70
2022/10/19 05:07:24;;;;;;;7.72;5.15;;;;;;;4.16;84.46;95606.22;6296189;28;20141;-71
2022/10/19 05:10:27;;;;;;;6.95;5.05;;;;;;;4.22;84.82;95606.72;6295775;28;20044;-71
2022/10/19 05:13:34;;;;;;;5.38;4.68;;;;;;;4.39;84.65;95608.31;6296150;28;20044;-71
2022/10/19 05:16:35;;;;;;;5.05;4.50;;;;;;;4.34;84.47;95589.53;6295340;28;20052;-71
2022/10/19 05:19:36;;;;;;;7.38;4.93;;;;;;;4.38;84.37;95575.38;6295413;28;20254;-70
2022/10/19 05:22:39;;;;;;;8.25;5.43;;;;;;;4.33;84.99;95582.66;6295986;28;20055;-69
2022/10/19 05:25:46;;;;;;;5.60;4.57;;;;;;;4.39;84.41;95566.66;6295820;28;20481;-70
2022/10/19 05:28:56;;;;;;;7.45;4.85;;;;;;;4.34;84.80;95570.47;6295671;28;20041;-69
2022/10/19 05:32:02;;;;;;;6.35;5.10;;;;;;;4.39;84.57;95564.03;6295780;28;20049;-69
2022/10/19 05:35:07;;;;;;;5.63;3.30;;;;;;;4.49;84.22;95557.31;6295539;28;20040;-69
2022/10/19 05:38:11;;;;;;;5.20;4.22;;;;;;;4.41;84.16;95563.94;6295538;28;20090;-70
2022/10/19 05:41:13;;;;;;;7.38;5.70;;;;;;;4.31;84.85;95553.25;6295288;28;20113;-70
2022/10/19 05:44:19;;;;;;;9.15;5.70;;;;;;;4.50;84.71;95548.59;6295517;28;20060;-69
2022/10/19 05:47:23;;;;;;;4.53;2.88;;;;;;;4.57;84.56;95533.41;6295532;28;20134;-70
2022/10/19 05:50:27;;;;;;;7.35;4.90;;;;;;;4.46;84.58;95526.25;6295506;28;20040;-70
2022/10/19 05:53:33;;;;;;;8.40;5.18;;;;;;;4.48;84.94;95529.59;6295774;28;20050;-69
2022/10/19 05:56:34;;;;;;;7.95;5.38;;;;;;;4.55;84.57;95527.44;6295357;28;20044;-70
2022/10/19 05:59:35;;;;;;;7.30;5.75;;;;;;;4.59;84.61;95520.31;6295064;28;20045;-70
2022/10/19 06:02:38;;;;;;;12.15;7.43;;;;;;;4.63;84.79;95516.56;6295731;28;20135;-69
2022/10/19 06:05:39;;;;;;;8.57;6.78;;;;;;;4.55;84.62;95514.41;6295165;28;20056;-71
2022/10/19 06:08:44;;;;;;;7.43;5.32;;;;;;;4.61;85.13;95518.41;6295007;28;20086;-70
2022/10/19 06:11:47;;;;;;;8.13;6.25;;;;;;;4.69;84.89;95511.78;6295549;28;20044;-70
2022/10/19 06:14:51;;;;;;;7.45;4.10;;;;;;;4.85;84.76;95511.66;6295146;28;20041;-69
2022/10/19 06:17:55;;;;;;;8.10;5.18;;;;;;;4.81;85.09;95494.56;6294595;28;20143;-70
2022/10/19 06:21:02;;;;;;;8.02;5.57;;;;;;;5.01;85.23;95492.41;6295709;28;20048;-69
2022/10/19 06:24:04;;;;;;;7.68;5.40;;;;;;;5.03;85.05;95493.16;6299060;28;20102;-69
2022/10/19 06:27:08;;;;;;;7.35;5.28;;;;;;;5.09;84.68;95495.34;6300050;28;20053;-69
2022/10/19 06:30:16;;;;;;;5.82;4.55;;;;;;;5.19;84.69;95483.41;6299994;28;20127;-70
2022/10/19 06:33:18;;;;;;;6.65;5.03;;;;;;;5.23;83.81;95490.06;6299467;28;20433;-69
2022/10/19 06:36:22;;;;;;;4.53;3.55;;;;;;;5.38;83.60;95481.25;6298442;28;20611;-70
2022/10/19 06:39:26;;;;;;;6.47;4.45;;;;;;;5.40;83.24;95487.19;6300031;28;20506;-69
2022/10/19 06:42:31;;;;;;;5.55;4.20;;;;;;;5.47;83.49;95485.03;6299470;28;20055;-70
2022/10/19 06:45:35;;;;;;;6.88;5.13;;;;;;;5.58;83.70;95484.31;6299962;28;20060;-70
2022/10/19 06:48:37;;;;;;;;;;;;;;;5.71;84.06;95476.47;6300344;28;20086;-70
2022/10/19 06:51:39;;;;;;;7.63;6.40;;;;;;;5.91;83.50;95483.78;6299390;28;19920;-68
2022/10/19 06:54:45;;;;;;;9.82;6.65;;;;;;;5.88;83.35;95480.53;6299526;28;20040;-69
2022/10/19 06:57:51;;;;;;;9.02;7.00;;;;;;;5.91;82.81;95470.72;6299028;28;20049;-69
2022/10/19 07:00:59;;;;;;;7.53;5.20;;;;;;;5.91;82.88;95469.88;6299219;28;20040;-67
2022/10/19 07:04:04;;;;;;;6.95;5.43;;;;;;;6.24;82.88;95464.97;6298824;28;20045;-68
2022/10/19 07:07:05;;;;;;;;;;;;;;;6.95;82.30;95459.94;6299265;28;20039;-68
2022/10/19 07:10:06;;;;;;;6.57;5.05;;;;;;;8.71;82.00;95471.84;6299320;28;19986;-69
2022/10/19 07:13:12;;;;;;;7.80;5.65;;;;;;;12.30;74.82;95461.75;6298699;28;20052;-69
2022/10/19 07:16:16;;;;;;;3.42;2.40;;;;;;;12.83;72.15;95463.72;6298616;28;20052;-69
2022/10/19 07:19:17;;;;;;;2.22;1.98;;;;;;;15.29;68.37;95462.75;6298695;28;20194;-69
2022/10/19 07:22:19;;;;;;;1.63;1.42;;;;;;;15.44;66.69;95474.34;6298077;28;20055;-69
2022/10/19 07:25:20;;;;;;;3.03;1.42;;;;;;;14.00;65.59;95481.34;6298008;28;20049;-69
2022/10/19 07:28:24;;;;;;;1.90;1.38;;;;;;;13.22;65.85;95480.16;6298552;28;20071;-69
2022/10/19 07:31:29;;;;;;;2.03;1.33;;;;;;;12.77;69.05;95470.44;6298601;28;20045;-68
2022/10/19 07:34:30;;;;;;;1.60;1.40;;;;;;;12.03;69.22;95471.28;6297518;28;20612;-69
2022/10/19 07:37:34;;;;;;;;;;;;;;;11.20;68.80;95477.97;6299213;28;20051;-68
2022/10/19 07:40:35;;;;;;;1.60;1.25;;;;;;;10.01;69.92;95471.59;6298299;28;19920;-69
2022/10/19 07:43:42;;;;;;;;;;;;;;;9.40;70.82;95485.47;6298495;28;20059;-69
2022/10/19 07:46:43;;;;;;;1.58;1.42;;;;;;;8.94;73.23;95483.94;6298069;28;19920;-68
2022/10/19 07:49:48;;;;;;;2.47;2.08;;;;;;;8.60;73.15;95474.47;6297889;28;20048;-69
2022/10/19 07:52:51;;;;;;;2.90;2.15;;;;;;;8.49;72.95;95478.81;6297817;28;20071;-70
2022/10/19 07:55:52;;;;;;;3.83;3.08;;;;;;;8.38;75.02;95480.53;6297270;28;20521;-70
2022/10/19 07:58:56;;;;;;;4.35;3.05;;;;;;;8.51;74.04;95476.88;6297212;28;20041;-69
2022/10/19 08:02:03;;;;;;;3.08;2.78;;;;;;;8.79;75.62;95479.94;6297496;28;20044;-69
2022/10/19 08:05:05;;;;;;;4.82;2.78;;;;;;;9.64;75.98;95476.50;6297001;28;20060;-70
2022/10/19 08:08:06;;;;;;;1.75;1.40;;;;;;;10.77;73.57;95474.69;6297650;28;20081;-68
2022/10/19 08:11:28;;;;;;;0.57;0.55;;;;;;;11.81;70.83;95487.38;6297254;28;20103;-69
2022/10/19 08:14:32;;;;;;;;;;;;;;;13.36;66.70;95486.75;6296666;28;20037;-69
2022/10/19 08:17:35;;;;;;;0.38;0.38;;;;;;;13.16;66.23;95495.75;6297067;28;19923;-69
2022/10/19 08:20:40;;;;;;;1.35;0.50;;;;;;;12.67;66.82;95489.91;6297405;28;20107;-68
2022/10/19 08:23:42;;;;;;;0.50;0.50;;;;;;;12.37;67.78;95483.94;6297294;28;20076;-69
2022/10/19 08:26:43;;;;;;;0.30;0.30;;;;;;;13.33;67.86;95487.03;6296760;28;20036;-70
2022/10/19 08:29:45;;;;;;;0.75;0.32;;;;;;;15.64;62.07;95496.91;6296316;28;20048;-69
2022/10/19 08:32:46;;;;;;;0.43;0.30;;;;;;;18.63;56.40;95502.22;6296899;28;20099;-69
2022/10/19 08:35:52;;;;;;;3.08;0.90;;;;;;;20.79;52.70;95512.13;6296951;28;20425;-68
2022/10/19 08:38:57;;;;;;;2.05;0.50;;;;;;;20.33;52.40;95504.59;6296965;28;20044;-68
2022/10/19 08:42:16;;;;;;;0.28;0.28;;;;;;;20.02;50.86;95508.44;6296604;28;20048;-70
2022/10/19 08:45:36;;;;;;;0.47;0.20;;;;;;;18.24;52.34;95503.25;6296113;28;20061;-69
2022/10/19 08:48:41;;;;;;;0.20;0.20;;;;;;;16.96;52.91;95501.09;6296455;28;20067;-68
2022/10/19 08:51:52;;;;;;;0.10;0.00;;;;;;;18.73;47.08;95499.28;6296712;28;20052;-69
2022/10/19 08:55:07;;;;;;;0.35;0.10;;;;;;;20.26;41.82;95511.72;6296556;28;20040;-69
2022/10/19 08:58:21;;;;;;;0.20;0.20;;;;;;;21.08;38.33;95503.84;6294810;28;20161;-69
2022/10/19 09:01:40;;;;;;;0.40;0.30;;;;;;;22.69;35.93;95511.22;6296380;28;20052;-70
2022/10/19 09:04:49;;;;;;;1.30;0.40;;;;;;;24.12;32.81;95527.25;6296210;28;20563;-69
2022/10/19 09:07:55;;;;;;;0.13;0.10;;;;;;;23.30;30.02;95524.31;6295696;28;20506;-69
2022/10/19 09:10:59;;;;;;;0.20;0.20;;;;;;;22.94;30.60;95530.16;6295715;28;20040;-69
2022/10/19 09:14:26;;;;;;;0.10;0.10;;;;;;;23.17;30.91;95545.00;6295676;28;20059;-69
2022/10/19 09:17:31;;;;;;;0.13;0.10;;;;;;;23.15;29.93;95542.50;6295921;28;20048;-70
2022/10/19 09:20:39;;;;;;;0.10;0.00;;;;;;;23.26;29.60;95547.22;6295638;28;20075;-70
2022/10/19 09:24:00;;;;;;;0.17;0.17;;;;;;;23.63;28.17;95560.13;6296012;28;20040;-70
2022/10/19 09:27:09;;;;;;;0.30;0.10;;;;;;;24.05;27.56;95568.63;6296021;28;20068;-69
2022/10/19 09:30:20;;;;;;;0.03;0.03;;;;;;;24.21;27.17;95581.56;6295995;28;20044;-69
2022/10/19 09:33:29;;;;;;;0.25;0.10;;;;;;;23.22;27.24;95591.63;6294953;28;20182;-70
2022/10/19 09:36:42;;;;;;;0.45;0.20;;;;;;;22.86;28.07;95576.78;6294909;28;20056;-68
2022/10/19 09:39:50;;;;;;;0.20;0.20;;;;;;;22.46;28.49;95575.16;6295676;28;20040;-69
2022/10/19 09:42:58;;;;;;;1.10;0.38;;;;;;;22.87;28.23;95593.69;6294958;28;20129;-69
2022/10/19 09:46:14;;;;;;;1.20;0.65;;;;;;;23.49;27.06;95602.28;6295467;28;20044;-70
2022/10/19 09:49:15;;;;;;;1.65;0.90;;;;;;;22.80;27.12;95615.16;6295325;28;20045;-69
2022/10/19 09:52:24;;;;;;;0.80;0.60;;;;;;;22.80;27.43;95614.34;6295439;28;20095;-69
2022/10/19 09:55:30;;;;;;;0.57;0.43;;;;;;;23.11;27.21;95631.69;6294198;28;20402;-70
2022/10/19 09:58:34;;;;;;;0.73;0.30;;;;;;;22.97;27.08;95625.50;6294502;28;20468;-69
2022/10/19 10:01:37;;;;;;;1.38;0.60;;;;;;;22.42;27.74;95639.06;6295038;28;20053;-69
2022/10/19 10:04:39;;;;;;;0.32;0.20;;;;;;;22.66;27.32;95656.41;6295021;28;20083;-68
2022/10/19 10:07:41;;;;;;;0.30;0.22;;;;;;;22.50;27.27;95659.47;6294295;28;20045;-69
2022/10/19 10:10:52;;;;;;;1.55;0.43;;;;;;;22.25;27.50;95659.22;6295055;28;20407;-70
2022/10/19 10:14:05;;;;;;;0.75;0.32;;;;;;;22.19;27.51;95666.19;6295188;28;20062;-70
2022/10/19 10:17:19;;;;;;;0.70;0.57;;;;;;;22.32;27.60;95662.75;6295078;28;20524;-69
2022/10/19 10:20:28;;;;;;;0.95;0.30;;;;;;;21.79;27.82;95678.59;6295440;28;20414;-70
2022/10/19 10:23:35;;;;;;;1.20;0.20;;;;;;;21.29;28.47;95682.19;6295442;28;20071;-69
2022/10/19 10:27:03;;;;;;;0.63;0.38;;;;;;;21.61;28.14;95695.19;6295627;28;20525;-69
2022/10/19 10:30:15;;;;;;;0.65;0.32;;;;;;;21.90;27.78;95700.25;6291940;28;20059;-69
2022/10/19 10:33:25;;;;;;;0.68;0.20;;;;;;;21.91;27.58;95704.63;6295019;28;20182;-68
2022/10/19 10:36:28;;;;;;;0.90;0.30;;;;;;;22.10;27.13;95718.28;6294427;28;20170;-70
2022/10/19 10:39:40;;;;;;;1.70;0.40;;;;;;;22.26;27.47;95720.66;6294924;28;20049;-70
2022/10/19 10:42:47;;;;;;;1.77;0.40;;;;;;;22.46;27.28;95719.91;6293531;28;20061;-69
2022/10/19 10:45:53;;;;;;;0.28;0.28;;;;;;;22.10;27.20;95737.03;6295069;28;20413;-68
2022/10/19 10:49:01;;;;;;;0.40;0.40;;;;;;;21.12;28.25;95744.16;6294578;28;20048;-70
2022/10/19 10:52:16;;;;;;;1.05;0.28;;;;;;;20.85;28.82;95735.91;6294828;28;20040;-69
2022/10/19 10:55:17;;;;;;;0.50;0.30;;;;;;;20.75;29.04;95743.41;6294640;28;20044;-69
2022/10/19 10:58:42;;;;;;;0.40;0.40;;;;;;;18.36;31.87;95741.47;6294780;28;20420;-68
2022/10/19 11:02:00;;;;;;;0.55;0.40;;;;;;;17.94;33.26;95756.00;6294714;28;20048;-70
2022/10/19 11:05:21;;;;;;;0.35;0.30;;;;;;;18.06;32.69;95753.81;6294410;28;20059;-69
2022/10/19 11:08:43;;;;;;;0.60;0.40;;;;;;;17.56;33.37;95752.28;6295562;28;20113;-70
2022/10/19 11:11:49;;;;;;;0.95;0.60;;;;;;;15.50;36.37;95775.91;6299445;28;20510;-69
2022/10/19 11:15:12;;;;;;;0.82;0.60;;;;;;;13.60;40.19;95763.66;6299080;28;20045;-69
2022/10/19 11:18:28;;;;;;;2.05;0.85;;;;;;;12.57;42.73;95769.69;6298654;28;20036;-68
2022/10/19 11:22:20;;;;;;;0.68;0.50;;;;;;;12.76;42.49;95787.28;6298840;28;20048;-69
2022/10/19 11:26:02;;;;;;;0.80;0.63;;;;;;;12.72;42.40;95788.56;6289769;28;20484;-69
2022/10/19 11:29:40;;;;;;;0.85;0.52;;;;;;;11.94;43.76;95788.44;6298605;28;20051;-69
2022/10/19 11:32:50;;;;;;;1.45;0.75;;;;;;;10.72;46.80;95794.41;6298404;28;20059;-69
2022/10/19 11:36:01;;;;;;;1.77;1.40;;;;;;;9.97;49.06;95797.84;6298537;28;20113;-69
2022/10/19 11:39:45;;;;;;;0.50;0.40;;;;;;;9.59;50.06;95793.81;6298424;28;20461;-69
2022/10/19 11:43:10;;;;;;;1.10;0.60;;;;;;;9.69;50.28;95800.03;6272122;28;20055;-69
2022/10/19 11:46:29;;;;;;;0.77;0.50;;;;;;;9.75;50.21;95799.53;6298184;28;20045;-68
2022/10/19 11:49:43;;;;;;;0.55;0.40;;;;;;;9.25;51.78;95811.34;6297994;28;20044;-68
2022/10/19 11:53:08;;;;;;;0.60;0.45;;;;;;;8.72;53.01;95810.03;6298272;28;20063;-69
2022/10/19 11:56:15;;;;;;;0.57;0.50;;;;;;;8.36;54.36;95808.31;6297927;28;20047;-70
2022/10/19 11:59:24;;;;;;;0.77;0.60;;;;;;;8.82;53.72;95815.44;6298159;28;20040;-69
2022/10/19 12:03:03;;;;;;;1.70;0.80;;;;;;;8.74;54.05;95810.75;6297678;28;20067;-69
2022/10/19 12:06:16;;;;;;;1.20;1.10;;;;;;;8.21;55.63;95810.25;6297119;28;20095;-70
2022/10/19 12:09:31;;;;;;;1.27;0.70;;;;;;;8.01;56.69;95830.03;6297874;28;20044;-70
2022/10/19 12:12:40;;;;;;;0.77;0.73;;;;;;;7.96;57.11;95826.91;6297359;28;20454;-70
2022/10/19 12:15:51;;;;;;;0.95;0.70;;;;;;;7.67;57.69;95831.56;6297502;28;20036;-70
2022/10/19 12:18:59;;;;;;;1.35;0.82;;;;;;;7.54;58.04;95849.91;6297216;28;20135;-69
2022/10/19 12:22:06;;;;;;;1.15;0.70;;;;;;;7.34;58.73;95855.69;6296702;28;20040;-69
2022/10/19 12:25:13;;;;;;;0.85;0.80;;;;;;;7.16;59.54;95852.50;6294470;28;20075;-69
2022/10/19 12:28:27;;;;;;;0.95;0.82;;;;;;;7.06;59.96;95856.72;6297031;28;20056;-69
2022/10/19 12:31:30;;;;;;;0.70;0.60;;;;;;;7.05;59.97;95881.16;6296785;28;20093;-69
2022/10/19 12:34:40;;;;;;;0.60;0.50;;;;;;;6.96;60.32;95874.78;6296962;28;20045;-69
2022/10/19 12:37:54;;;;;;;1.02;0.88;;;;;;;6.90;60.57;95875.19;6296627;28;20055;-68
2022/10/19 12:41:17;;;;;;;0.63;0.40;;;;;;;6.85;60.58;95885.09;6295306;28;20505;-70
2022/10/19 12:44:40;;;;;;;1.35;0.80;;;;;;;6.77;60.58;95887.41;6296611;28;20453;-70
2022/10/19 12:48:07;;;;;;;1.08;0.82;;;;;;;6.64;60.88;95898.66;6296289;28;20044;-69
2022/10/19 12:51:14;;;;;;;1.38;0.93;;;;;;;6.55;61.22;95894.03;6296157;28;20044;-68
2022/10/19 12:54:22;;;;;;;0.93;0.80;;;;;;;6.54;60.98;95913.28;6296039;28;20059;-69
2022/10/19 12:57:29;;;;;;;1.02;0.88;;;;;;;6.45;61.43;95912.06;6296318;28;20047;-70
2022/10/19 13:00:36;;;;;;;0.82;0.82;;;;;;;6.39;61.54;95930.75;6296093;28;20509;-70
2022/10/19 13:03:44;;;;;;;0.95;0.60;;;;;;;6.32;61.50;95933.84;6296024;28;20048;-70
2022/10/19 13:07:09;;;;;;;0.95;0.60;;;;;;;6.41;61.08;95931.50;6295639;28;20221;-70
2022/10/19 13:10:22;;;;;;;1.80;0.98;;;;;;;6.60;60.65;95939.00;6295568;28;20138;-69
2022/10/19 13:14:01;;;;;;;1.70;0.80;;;;;;;6.73;60.05;95939.88;6295485;28;20087;-70
2022/10/19 13:17:06;;;;;;;0.90;0.60;;;;;;;6.73;60.14;95945.09;6295278;28;20048;-70
2022/10/19 13:20:13;;;;;;;1.52;0.50;;;;;;;6.77;59.86;95931.88;6295756;28;20064;-69
2022/10/19 13:23:16;;;;;;;0.65;0.65;;;;;;;6.73;60.18;95939.88;6294982;28;20055;-69
2022/10/19 13:26:31;;;;;;;0.93;0.50;;;;;;;6.73;60.17;95945.09;6295923;28;20056;-69
2022/10/19 13:29:37;;;;;;;0.40;0.40;;;;;;;6.70;59.82;95949.69;6295665;28;20410;-69
2022/10/19 13:32:43;;;;;;;0.65;0.40;;;;;;;6.74;59.78;95949.41;6294943;28;20148;-69
2022/10/19 13:36:04;;;;;;;1.15;0.40;;;;;;;6.82;59.50;95959.38;6295480;28;20051;-69
2022/10/19 13:39:12;;;;;;;0.47;0.40;;;;;;;6.85;59.69;95963.56;6295240;28;20130;-69
2022/10/19 13:42:26;;;;;;;1.50;0.80;;;;;;;7.10;59.03;95979.31;6295413;28;20403;-69
2022/10/19 13:45:30;;;;;;;1.20;0.77;;;;;;;7.03;59.00;95977.22;6295047;28;20044;-69
2022/10/19 13:48:46;;;;;;;0.50;0.47;;;;;;;6.95;59.09;96001.25;6295091;28;20041;-70
2022/10/19 13:51:56;;;;;;;2.10;1.27;;;;;;;6.91;59.45;96007.63;6295246;28;20048;-70
2022/10/19 13:55:15;;;;;;;3.33;1.77;;;;;;;6.95;59.32;96003.88;6295294;28;20044;-70
2022/10/19 13:58:45;;;;;;;2.88;1.60;;;;;;;7.07;58.89;96012.72;6295413;28;20046;-69
2022/10/19 14:01:57;;;;;;;8.50;4.43;;;;;;;7.08;59.08;96025.69;6291646;28;20491;-69
2022/10/19 14:05:42;;;;;;;3.58;2.35;;;;;;;7.15;58.55;96028.75;6294673;28;20423;-68
2022/10/19 14:09:03;;;;;;;3.35;2.00;;;;;;;7.09;58.85;96019.53;6294659;28;20041;-69
2022/10/19 14:12:23;;;;;;;3.80;2.58;;;;;;;7.09;58.56;96019.53;6294734;28;20053;-69
2022/10/19 14:15:30;;;;;;;3.05;1.65;;;;;;;7.06;58.97;96030.19;6293895;28;20095;-68
2022/10/19 14:18:34;;;;;;;3.72;2.10;;;;;;;7.03;58.77;96025.16;6294653;28;20652;-71
2022/10/19 14:21:36;;;;;;;2.17;1.50;;;;;;;7.00;58.69;96022.72;6294521;28;20129;-68
2022/10/19 14:24:40;;;;;;;;;;;;;;;6.97;58.35;96030.78;6295069;28;20044;-69
2022/10/19 14:27:42;;;;;;;3.13;1.60;;;;;;;6.95;58.75;96028.25;6293377;28;19920;-70
2022/10/19 14:30:53;;;;;;;2.38;1.60;;;;;;;6.92;58.64;96022.38;6294839;28;20110;-69
2022/10/19 14:34:00;;;;;;;2.40;1.50;;;;;;;6.93;59.10;96029.28;6295205;28;20078;-71
2022/10/19 14:37:01;;;;;;;1.50;1.15;;;;;;;7.00;58.95;96035.81;6294722;28;20052;-68
2022/10/19 14:40:06;;;;;;;1.08;0.80;;;;;;;7.22;58.59;96042.25;6294360;28;20055;-70
2022/10/19 14:43:25;;;;;;;1.98;0.90;;;;;;;7.18;59.12;96049.47;6294808;28;20048;-70
2022/10/19 14:46:34;;;;;;;0.93;0.70;;;;;;;7.19;59.48;96041.53;6299555;28;20052;-69
2022/10/19 14:49:39;;;;;;;0.60;0.60;;;;;;;7.19;59.35;96038.94;6299065;28;20139;-69
2022/10/19 14:52:42;;;;;;;0.77;0.60;;;;;;;7.03;60.29;96046.06;6298915;28;20059;-69
2022/10/19 14:55:44;;;;;;;0.60;0.60;;;;;;;6.92;60.78;96049.38;6298680;28;20044;-68